Los Ranchos del Rio, New Mexico
Current Conditions -  °F | °C
As of 9:51 AM on Friday 19 Dec 2014 (Local Time) from KELP Reporting Station
Few Clouds Few Clouds  
Wind Chill: 46°   Ceiling: Unl
Heat Index: 46°   Visibility: 10mi
Dew Point: 39°   Wind: 3mph
Humidity: 76%   Direction: NA
Pressure: 30.23"   Gusts: NA
Location:  31.8707°N, 106.67°W
Report Text: KELP 191651Z VRB03KT 10SM FEW020 08/04 A3023 RMK AO2 SLP213 OCNL CLDS TOPING MTNS SW-NW T00780039
Loading
Personal Weather Stations






























Interactive Weather Map New forecast layout! Learn more

10-Day Weather Forecast

Advertisements
Track Severe Weather on mobile